Time;durP1;ratioP1;P1;durP2;ratioP2;P2;SDS_P1;SDS_P2;PMS_P1;PMS_P2;Temp;Humidity;BMP_temperature;BMP_pressure;BME280_temperature;BME280_humidity;BME280_pressure;Samples;Min_cycle;Max_cycle;Signal;HPM_P1;HPM_P2
2022/12/24 00:00:47;;;;;;;;;8.25;6.25;;;;;13.87;67.98;101157.16;2413094;28;46436;-77
2022/12/24 00:01:57;;;;;;;;;5.50;3.25;;;;;13.87;67.82;101173.03;2406632;28;45448;-77
2022/12/24 00:03:07;;;;;;;;;7.00;3.50;;;;;13.87;67.88;101167.72;2402785;28;47295;-77
2022/12/24 00:04:17;;;;;;;;;12.25;4.00;;;;;13.86;68.42;101159.84;2409588;28;45168;-77
2022/12/24 00:05:28;;;;;;;;;15.75;4.25;;;;;13.85;67.90;101169.59;2412964;28;45300;-77
2022/12/24 00:06:38;;;;;;;;;6.75;3.00;;;;;13.85;68.04;101172.22;2403639;28;45214;-77
2022/12/24 00:07:48;;;;;;;;;14.50;3.50;;;;;13.85;67.80;101174.88;2410113;28;45647;-77
2022/12/24 00:08:59;;;;;;;;;7.50;4.50;;;;;13.85;67.96;101169.59;2412778;28;45296;-77
2022/12/24 00:10:09;;;;;;;;;6.25;4.00;;;;;13.83;68.04;101168.75;2412114;28;45237;-77
2022/12/24 00:11:20;;;;;;;;;11.50;4.25;;;;;13.84;68.10;101173.13;2411402;28;45217;-77
2022/12/24 00:12:31;;;;;;;;;5.50;5.00;;;;;13.83;68.09;101172.25;2412634;28;45210;-77
2022/12/24 00:13:41;;;;;;;;;5.75;4.00;;;;;13.83;68.19;101171.41;2411963;28;45154;-77
2022/12/24 00:14:52;;;;;;;;;9.00;5.75;;;;;13.82;67.93;101161.78;2412938;28;45672;-77
2022/12/24 00:16:03;;;;;;;;;8.50;4.50;;;;;13.82;68.17;101169.69;2412392;28;45335;-77
2022/12/24 00:17:13;;;;;;;;;3.50;2.50;;;;;13.82;68.00;101173.22;2411979;28;47445;-77
2022/12/24 00:18:23;;;;;;;;;4.00;4.00;;;;;13.81;67.91;101167.97;2410686;28;45436;-77
2022/12/24 00:19:34;;;;;;;;;5.00;4.00;;;;;13.81;67.97;101168.81;2412017;28;48365;-77
2022/12/24 00:20:47;;;;;;;;;7.75;4.50;;;;;13.80;67.90;101167.09;2412493;28;45241;-77
2022/12/24 00:21:57;;;;;;;;;7.75;6.00;;;;;13.79;67.80;101164.53;2405329;28;46456;-77
2022/12/24 00:23:09;;;;;;;;;5.50;4.00;;;;;13.80;67.78;101172.38;2411205;28;45458;-77
2022/12/24 00:24:19;;;;;;;;;8.00;3.25;;;;;13.79;68.49;101169.81;2412838;28;45432;-77
2022/12/24 00:25:29;;;;;;;;;6.50;4.00;;;;;13.79;67.80;101169.81;2402891;28;44658;-77
2022/12/24 00:26:40;;;;;;;;;6.50;4.00;;;;;13.78;68.05;101173.41;2395712;28;47362;-77
2022/12/24 00:27:50;;;;;;;;;7.75;4.00;;;;;13.78;68.13;101176.03;2403302;28;44601;-76
2022/12/24 00:29:00;;;;;;;;;6.75;4.75;;;;;13.76;68.04;101180.50;2412734;28;45335;-76
2022/12/24 00:30:11;;;;;;;;;8.00;5.75;;;;;13.75;67.94;101173.50;2406317;28;45215;-76
2022/12/24 00:31:21;;;;;;;;;8.50;4.75;;;;;13.73;67.95;101178.81;2403313;28;45297;-76
2022/12/24 00:32:31;;;;;;;;;6.25;4.00;;;;;13.73;67.84;101173.53;2408837;28;45288;-76
2022/12/24 00:33:43;;;;;;;;;11.75;5.25;;;;;13.71;67.80;101180.69;2410902;28;45485;-77
2022/12/24 00:34:54;;;;;;;;;11.25;5.50;;;;;13.69;68.10;101177.25;2411846;28;45384;-77
2022/12/24 00:36:05;;;;;;;;;12.00;5.50;;;;;13.69;68.16;101172.81;2411408;28;45268;-77
2022/12/24 00:37:16;;;;;;;;;6.75;4.75;;;;;13.67;67.93;101173.81;2406317;28;45250;-77
2022/12/24 00:38:26;;;;;;;;;5.00;3.00;;;;;13.65;68.09;101173.88;2403911;28;48007;-76
2022/12/24 00:39:36;;;;;;;;;4.00;4.00;;;;;13.65;68.50;101179.16;2412414;28;44644;-76
2022/12/24 00:40:47;;;;;;;;;8.75;4.00;;;;;13.63;68.16;101175.69;2412635;28;45300;-76
2022/12/24 00:41:57;;;;;;;;;7.25;5.00;;;;;13.62;68.31;101184.56;2412462;28;45284;-76
2022/12/24 00:43:07;;;;;;;;;10.50;2.75;;;;;13.60;68.02;101186.41;2412113;28;45542;-76
2022/12/24 00:44:18;;;;;;;;;8.00;6.25;;;;;13.59;68.23;101185.53;2411035;28;44770;-76
2022/12/24 00:45:28;;;;;;;;;6.50;4.00;;;;;13.58;68.44;101186.44;2410268;28;45427;-76
2022/12/24 00:46:40;;;;;;;;;10.75;7.25;;;;;13.57;68.13;101189.16;2412956;28;44521;-76
2022/12/24 00:47:50;;;;;;;;;7.25;4.00;;;;;13.57;68.48;101197.06;2404306;28;45671;-76
2022/12/24 00:49:01;;;;;;;;;4.00;3.50;;;;;13.57;68.16;101200.56;2403227;28;45290;-76
2022/12/24 00:50:11;;;;;;;;;6.75;4.25;;;;;13.56;68.16;101203.22;2408238;28;46432;-76
2022/12/24 00:51:23;;;;;;;;;9.25;4.25;;;;;13.55;68.35;101207.66;2412527;28;45366;-76
2022/12/24 00:52:33;;;;;;;;;6.75;4.00;;;;;13.55;68.49;101205.03;2412370;28;46438;-76
2022/12/24 00:53:44;;;;;;;;;8.50;4.50;;;;;13.55;68.55;101217.38;2410753;28;45197;-77
2022/12/24 00:54:54;;;;;;;;;10.50;4.75;;;;;13.54;68.65;101215.63;2412560;28;46504;-77
2022/12/24 00:56:06;;;;;;;;;6.50;5.00;;;;;13.54;68.36;101218.28;2412036;28;44656;-77
2022/12/24 00:57:16;;;;;;;;;10.25;4.00;;;;;13.54;68.53;101203.28;2412051;28;45436;-77
2022/12/24 00:58:26;;;;;;;;;6.75;4.00;;;;;13.54;68.77;101190.09;2411398;28;45320;-77
2022/12/24 00:59:37;;;;;;;;;9.50;4.25;;;;;13.53;68.72;101185.72;2411550;28;45536;-77
2022/12/24 01:00:47;;;;;;;;;13.25;7.50;;;;;13.54;68.54;101197.16;2407210;28;44549;-77
2022/12/24 01:01:57;;;;;;;;;9.00;5.00;;;;;13.54;68.53;101198.00;2411101;28;45217;-77
2022/12/24 01:03:08;;;;;;;;;6.00;4.50;;;;;13.54;68.56;101208.56;2403235;28;45274;-77
2022/12/24 01:05:47;;;;;;;;;6.75;0.00;;;;;13.53;68.65;101227.97;2412809;28;45214;-77
2022/12/24 01:06:57;;;;;;;;;7.75;5.00;;;;;13.52;68.49;101230.69;2410546;28;45259;-77
2022/12/24 01:08:07;;;;;;;;;14.00;6.25;;;;;13.53;68.23;101220.03;2410660;28;45417;-77
2022/12/24 01:09:18;;;;;;;;;9.25;7.25;;;;;13.52;68.54;101220.97;2407817;28;46334;-77
2022/12/24 01:10:28;;;;;;;;;10.25;6.75;;;;;13.53;68.69;101230.59;2410397;28;45276;-77
2022/12/24 01:11:39;;;;;;;;;7.75;4.25;;;;;13.54;68.63;101223.56;2411779;28;45284;-77
2022/12/24 01:12:49;;;;;;;;;7.25;4.00;;;;;13.53;68.76;101221.84;2412492;28;44631;-77
2022/12/24 01:13:59;;;;;;;;;6.50;0.75;;;;;13.52;68.64;101220.13;2412189;28;46696;-77
2022/12/24 01:15:12;;;;;;;;;9.75;6.50;;;;;13.50;68.70;101212.25;2411763;28;45229;-77
2022/12/24 01:16:22;;;;;;;;;11.50;7.50;;;;;13.50;68.67;101206.97;2411337;28;46534;-77
2022/12/24 01:17:33;;;;;;;;;8.75;7.00;;;;;13.51;68.53;101198.13;2407542;28;44725;-77
2022/12/24 01:18:44;;;;;;;;;8.50;4.75;;;;;13.50;68.62;101202.56;2409408;28;46364;-77
2022/12/24 01:19:55;;;;;;;;;5.00;5.00;;;;;13.49;68.70;101197.31;2412355;28;45156;-77
2022/12/24 01:21:05;;;;;;;;;8.50;4.00;;;;;13.50;68.68;101207.84;2411201;28;46358;-77
2022/12/24 01:22:15;;;;;;;;;6.75;3.75;;;;;13.50;68.59;101194.66;2410289;28;44812;-77
2022/12/24 01:23:27;;;;;;;;;9.75;5.00;;;;;13.52;68.66;101204.28;2412179;28;45325;-77
2022/12/24 01:24:40;;;;;;;;;9.25;6.50;;;;;13.50;68.61;101191.13;2411574;28;45493;-77
2022/12/24 01:25:50;;;;;;;;;5.75;3.50;;;;;13.49;68.72;101187.63;2409692;28;45173;-77
2022/12/24 01:27:01;;;;;;;;;6.75;3.75;;;;;13.50;68.78;101181.44;2412569;28;45165;-77
2022/12/24 01:28:11;;;;;;;;;9.00;6.00;;;;;13.50;68.82;101181.44;2408062;28;46084;-77
2022/12/24 01:29:21;;;;;;;;;6.25;3.75;;;;;13.50;68.71;101188.50;2412084;28;45293;-77
2022/12/24 01:30:32;;;;;;;;;8.25;3.00;;;;;13.50;68.87;101201.69;2412336;28;46573;-77
2022/12/24 01:31:42;;;;;;;;;8.00;4.50;;;;;13.50;68.78;101207.84;2411829;28;44753;-77
2022/12/24 01:32:52;;;;;;;;;7.75;3.25;;;;;13.52;68.80;101222.75;2407258;28;46810;-77
2022/12/24 01:34:03;;;;;;;;;10.75;5.25;;;;;13.52;68.75;101217.47;2412613;28;45280;-77
2022/12/24 01:35:13;;;;;;;;;9.50;5.25;;;;;13.51;68.70;101221.88;2403448;28;46454;-77
2022/12/24 01:36:24;;;;;;;;;7.25;3.50;;;;;13.51;68.83;101224.53;2402268;28;45273;-77
2022/12/24 01:37:34;;;;;;;;;8.75;6.50;;;;;13.52;68.89;101225.41;2401941;28;45648;-76
2022/12/24 01:38:45;;;;;;;;;10.25;5.00;;;;;13.50;68.76;101223.69;2411556;28;45389;-76
2022/12/24 01:43:22;;;;;;;;;11.25;4.25;;;;;13.52;68.85;101228.03;2410822;28;48087;-76
2022/12/24 01:44:30;;;;;;;;;14.75;8.25;;;;;13.53;68.67;101211.28;2411036;28;45505;-76
2022/12/24 01:45:46;;;;;;;;;8.00;5.50;;;;;13.53;69.15;101211.28;2417300;28;47273;-76
2022/12/24 01:47:27;;;;;;;;;7.75;3.50;;;;;13.54;68.75;101218.28;2413582;28;45313;-76
2022/12/24 01:48:40;;;;;;;;;7.25;4.50;;;;;13.54;68.96;101220.91;2390686;28;45583;-76
2022/12/24 01:49:55;;;;;;;;;10.25;6.00;;;;;13.54;68.82;101218.28;2410964;28;44763;-76
2022/12/24 01:51:13;;;;;;;;;5.75;4.25;;;;;13.54;68.74;101213.00;2410464;28;47066;-77
2022/12/24 01:52:31;;;;;;;;;8.75;5.25;;;;;13.55;68.90;101220.00;2405562;28;45343;-77
2022/12/24 01:53:44;;;;;;;;;9.00;5.50;;;;;13.54;69.00;101220.91;2407073;28;45429;-77
2022/12/24 01:55:04;;;;;;;;;10.00;5.00;;;;;13.54;69.05;101228.84;2411108;28;45296;-77
2022/12/24 01:56:15;;;;;;;;;6.25;6.00;;;;;13.55;68.73;101233.22;2402940;28;45440;-77
2022/12/24 01:57:44;;;;;;;;;9.50;4.50;;;;;13.56;68.74;101229.63;2409683;28;45281;-77
2022/12/24 01:59:01;;;;;;;;;10.75;8.00;;;;;13.55;68.97;101233.22;2410237;28;46396;-77
2022/12/24 02:00:13;;;;;;;;;9.00;5.50;;;;;13.56;68.89;101234.91;2403265;28;44624;-77
2022/12/24 02:01:24;;;;;;;;;4.00;2.50;;;;;13.56;68.86;101238.44;2402325;28;47388;-77
2022/12/24 02:02:34;;;;;;;;;7.75;4.75;;;;;13.56;68.99;101237.56;2399492;28;45370;-77
2022/12/24 02:03:45;;;;;;;;;7.00;5.00;;;;;13.56;68.87;101241.09;2401933;28;45384;-77
2022/12/24 02:05:13;;;;;;;;;6.50;4.75;;;;;13.56;68.98;101243.75;2402810;28;45213;-77
2022/12/24 02:06:24;;;;;;;;;12.50;6.50;;;;;13.55;68.68;101235.84;2409295;28;45363;-77
2022/12/24 02:07:35;;;;;;;;;7.75;4.50;;;;;13.57;68.92;101237.56;2409559;28;45296;-76
2022/12/24 02:08:46;;;;;;;;;8.75;4.25;;;;;13.57;68.98;101239.31;2411603;28;45527;-76
2022/12/24 02:09:58;;;;;;;;;9.00;4.75;;;;;13.57;68.98;101249.88;2408047;28;45722;-76
2022/12/24 02:11:14;;;;;;;;;12.00;7.00;;;;;13.57;68.90;101257.81;2409791;28;47051;-76
2022/12/24 02:12:27;;;;;;;;;8.25;5.25;;;;;13.57;68.79;101260.44;2409563;28;45305;-76
2022/12/24 02:13:38;;;;;;;;;6.25;4.75;;;;;13.58;69.08;101260.38;2403147;28;45587;-76
2022/12/24 02:14:49;;;;;;;;;9.25;4.25;;;;;13.57;68.94;101255.16;2411677;28;45473;-76
2022/12/24 02:16:37;;;;;;;;;7.50;4.75;;;;;13.58;68.95;101249.81;2408959;28;45236;-76
2022/12/24 02:18:10;;;;;;;;;8.75;5.25;;;;;13.58;68.72;101251.63;2406574;28;45206;-76
2022/12/24 02:19:23;;;;;;;;;9.00;5.50;;;;;13.58;68.83;101264.81;2402693;28;45422;-76
2022/12/24 02:21:09;;;;;;;;;8.00;5.25;;;;;13.56;68.67;101262.22;2409120;28;45426;-76
2022/12/24 02:22:34;;;;;;;;;11.50;7.25;;;;;13.55;68.92;101251.69;2403651;28;45305;-76
2022/12/24 02:24:02;;;;;;;;;16.75;8.25;;;;;13.55;68.62;101256.97;2410755;28;45336;-76
2022/12/24 02:25:46;;;;;;;;;12.75;5.00;;;;;13.54;68.63;101242.91;2404468;28;46181;-76
2022/12/24 02:27:11;;;;;;;;;4.50;4.00;;;;;13.53;68.74;101246.44;2406242;28;45170;-76
2022/12/24 02:28:59;;;;;;;;;12.50;7.25;;;;;13.53;68.99;101249.09;2411472;28;45382;-76
2022/12/24 02:30:33;;;;;;;;;9.25;4.00;;;;;13.50;68.77;101250.09;2410381;28;44745;-76
2022/12/24 02:31:52;;;;;;;;;15.50;5.25;;;;;13.50;69.17;101263.31;2409609;28;46452;-76
2022/12/24 02:33:21;;;;;;;;;7.00;6.75;;;;;13.49;68.86;101251.00;2410081;28;45401;-76
2022/12/24 02:34:40;;;;;;;;;13.75;6.00;;;;;13.49;69.13;101258.94;2401458;28;48138;-76
2022/12/24 02:36:01;;;;;;;;;5.00;4.00;;;;;13.48;69.02;101257.19;2407101;28;45242;-76
2022/12/24 02:37:15;;;;;;;;;9.25;6.00;;;;;13.49;68.92;101261.56;2406034;28;48444;-76
2022/12/24 02:38:38;;;;;;;;;8.00;4.50;;;;;13.48;68.75;101245.78;2412033;28;45375;-76
2022/12/24 02:39:54;;;;;;;;;6.00;4.50;;;;;13.48;69.19;101251.06;2409008;28;45503;-76
2022/12/24 02:41:15;;;;;;;;;11.75;8.00;;;;;13.47;69.01;101250.22;2412977;28;45323;-76
2022/12/24 02:42:39;;;;;;;;;7.75;4.75;;;;;13.46;68.91;101243.19;2403330;28;48157;-76
2022/12/24 02:43:53;;;;;;;;;5.00;4.00;;;;;13.46;68.99;101240.53;2403632;28;45318;-76
2022/12/24 02:45:17;;;;;;;;;5.50;2.50;;;;;13.47;69.21;101238.78;2408197;28;46423;-76
2022/12/24 02:46:30;;;;;;;;;9.50;6.50;;;;;13.47;69.73;101239.66;2412404;28;45214;-76
2022/12/24 02:47:44;;;;;;;;;9.25;4.75;;;;;13.47;69.12;101237.00;2412271;28;47174;-76
2022/12/24 02:48:58;;;;;;;;;7.00;5.25;;;;;13.48;69.28;101241.34;2405328;28;44779;-76
2022/12/24 02:50:10;;;;;;;;;8.50;6.25;;;;;13.47;69.12;101244.94;2407559;28;46965;-76
2022/12/24 02:51:23;;;;;;;;;6.75;3.50;;;;;13.47;69.03;101239.66;2412474;28;45415;-76
2022/12/24 02:52:39;;;;;;;;;12.00;5.25;;;;;13.49;69.27;101248.38;2416451;28;47112;-76
2022/12/24 02:53:49;;;;;;;;;9.25;5.50;;;;;13.49;69.41;101252.78;2406681;28;45238;-76
2022/12/24 02:55:22;;;;;;;;;7.75;5.25;;;;;13.49;69.46;101252.78;2408112;28;45321;-76
2022/12/24 02:57:03;;;;;;;;;4.00;3.25;;;;;13.50;69.23;101260.66;2402319;28;46284;-76
2022/12/24 02:58:22;;;;;;;;;5.50;5.25;;;;;13.49;69.15;101258.94;2413255;28;45499;-76
2022/12/24 02:59:48;;;;;;;;;7.75;4.00;;;;;13.48;69.27;101254.53;2412058;28;45234;-77
2022/12/24 03:01:22;;;;;;;;;8.00;6.50;;;;;13.48;69.07;101246.63;2407957;28;46361;-77
2022/12/24 03:03:06;;;;;;;;;11.00;5.00;;;;;13.48;69.27;101246.63;2404152;28;45256;-77
2022/12/24 03:04:46;;;;;;;;;8.25;4.50;;;;;13.48;69.24;101243.97;2407270;28;45372;-77
2022/12/24 03:06:22;;;;;;;;;4.50;3.25;;;;;13.50;69.23;101241.31;2412666;28;45254;-77
2022/12/24 03:08:15;;;;;;;;;9.25;7.00;;;;;13.49;69.26;101237.81;2405198;28;45537;-76
2022/12/24 03:09:43;;;;;;;;;11.25;6.50;;;;;13.47;69.54;101238.78;2392391;28;45380;-76
2022/12/24 03:11:05;;;;;;;;;5.25;3.50;;;;;13.48;69.56;101241.34;2409728;28;47488;-76
2022/12/24 03:12:21;;;;;;;;;7.50;4.50;;;;;13.48;69.41;101249.25;2416957;28;45273;-76
2022/12/24 03:13:32;;;;;;;;;7.75;4.75;;;;;13.47;69.54;101242.28;2418230;28;45554;-76
2022/12/24 03:14:44;;;;;;;;;10.25;7.00;;;;;13.49;69.69;101243.09;2411057;28;45328;-76
2022/12/24 03:15:54;;;;;;;;;7.25;4.25;;;;;13.49;69.53;101239.56;2413029;28;46372;-76
2022/12/24 03:17:06;;;;;;;;;14.00;6.50;;;;;13.50;69.17;101236.91;2412633;28;45306;-76
2022/12/24 03:18:21;;;;;;;;;8.00;5.50;;;;;13.48;69.61;101233.41;2412815;28;45357;-76
2022/12/24 03:19:33;;;;;;;;;13.50;5.00;;;;;13.49;69.34;101232.53;2407465;28;45356;-76
2022/12/24 03:20:50;;;;;;;;;6.00;4.00;;;;;13.51;69.49;101237.72;2409407;28;47525;-76
2022/12/24 03:22:06;;;;;;;;;9.75;5.00;;;;;13.50;69.52;101234.25;2412814;28;44640;-76
2022/12/24 03:23:17;;;;;;;;;9.75;5.50;;;;;13.52;69.66;101231.53;2412545;28;46526;-76
2022/12/24 03:24:27;;;;;;;;;8.75;5.25;;;;;13.51;69.31;101229.81;2409573;28;44597;-76
2022/12/24 03:25:42;;;;;;;;;11.00;5.00;;;;;13.52;69.65;101231.53;2407542;28;45327;-76
2022/12/24 03:26:52;;;;;;;;;3.50;1.75;;;;;13.53;69.57;101221.84;2413541;28;44650;-76
2022/12/24 03:28:05;;;;;;;;;10.25;3.50;;;;;13.54;69.70;101220.91;2413170;28;45422;-76
2022/12/24 03:29:16;;;;;;;;;8.75;4.75;;;;;13.54;69.71;101213.00;2411790;28;45253;-77
2022/12/24 03:30:27;;;;;;;;;9.50;4.75;;;;;13.55;69.55;101217.38;2411482;28;45555;-77
2022/12/24 03:31:46;;;;;;;;;3.25;3.00;;;;;13.54;69.66;101218.28;2413466;28;45216;-77
2022/12/24 03:32:56;;;;;;;;;9.75;3.50;;;;;13.55;69.38;101214.72;2413260;28;45605;-76
2022/12/24 03:34:07;;;;;;;;;4.25;4.00;;;;;13.54;69.26;101223.56;2406528;28;45429;-77
2022/12/24 03:35:17;;;;;;;;;8.25;3.75;;;;;13.53;69.28;101227.13;2409690;28;45610;-77
2022/12/24 03:36:29;;;;;;;;;4.00;4.00;;;;;13.50;69.41;101223.69;2412423;28;44890;-77
2022/12/24 03:37:39;;;;;;;;;9.25;5.50;;;;;13.52;69.55;101220.13;2412153;28;47549;-77
2022/12/24 03:38:50;;;;;;;;;13.75;5.25;;;;;13.52;69.41;101223.63;2411549;28;45198;-77
2022/12/24 03:40:00;;;;;;;;;3.75;3.75;;;;;13.52;69.56;101220.97;2408569;28;45407;-77
2022/12/24 03:41:10;;;;;;;;;9.00;5.00;;;;;13.52;69.60;101225.41;2403807;28;45241;-77
2022/12/24 03:42:21;;;;;;;;;10.00;5.75;;;;;13.53;69.41;101227.13;2403730;28;46238;-77
2022/12/24 03:43:32;;;;;;;;;8.00;4.25;;;;;13.52;69.48;101235.97;2411955;28;45466;-76
2022/12/24 03:44:42;;;;;;;;;8.00;4.00;;;;;13.52;69.65;101236.81;2412684;28;46138;-76
2022/12/24 03:45:52;;;;;;;;;5.00;3.25;;;;;13.52;69.65;101228.03;2412240;28;45323;-76
2022/12/24 03:47:03;;;;;;;;;8.75;5.00;;;;;13.52;69.49;101241.25;2412212;28;48008;-76
2022/12/24 03:48:13;;;;;;;;;9.75;3.50;;;;;13.52;69.37;101234.19;2411970;28;46320;-76
2022/12/24 03:49:24;;;;;;;;;5.50;5.25;;;;;13.50;69.58;101239.53;2413111;28;46228;-76
2022/12/24 03:50:34;;;;;;;;;12.25;5.75;;;;;13.51;69.30;101235.09;2412468;28;45264;-76
2022/12/24 03:51:44;;;;;;;;;13.75;3.75;;;;;13.50;69.51;101238.66;2413048;28;45381;-76
2022/12/24 03:52:55;;;;;;;;;7.25;5.50;;;;;13.48;69.36;101241.34;2415622;28;45211;-76
2022/12/24 03:54:05;;;;;;;;;9.75;4.75;;;;;13.49;69.60;101240.44;2411947;28;48489;-76
2022/12/24 03:55:15;;;;;;;;;8.75;6.75;;;;;13.49;69.24;101247.50;2415066;28;45355;-76
2022/12/24 03:56:26;;;;;;;;;11.00;6.00;;;;;13.46;69.63;101248.47;2410715;28;48044;-76
2022/12/24 03:57:36;;;;;;;;;3.25;2.25;;;;;13.47;69.55;101247.56;2411985;28;44675;-76
2022/12/24 03:58:47;;;;;;;;;10.25;6.75;;;;;13.45;69.29;101245.91;2412541;28;46217;-76
2022/12/24 03:59:57;;;;;;;;;7.25;3.50;;;;;13.45;69.35;101244.13;2409582;28;45217;-76
2022/12/24 04:01:08;;;;;;;;;11.25;7.75;;;;;13.45;69.77;101243.25;2412785;28;46340;-76
2022/12/24 04:02:18;;;;;;;;;7.00;4.00;;;;;13.44;69.31;101247.66;2403697;28;45221;-76
2022/12/24 04:03:28;;;;;;;;;9.25;8.00;;;;;13.44;69.48;101250.31;2402688;28;45590;-76
2022/12/24 04:04:39;;;;;;;;;9.75;7.75;;;;;13.45;69.66;101249.41;2400410;28;45437;-76
2022/12/24 04:06:00;;;;;;;;;7.00;4.00;;;;;13.45;69.40;101252.03;2402082;28;45255;-76
2022/12/24 04:07:10;;;;;;;;;10.50;7.00;;;;;13.45;69.59;101253.81;2402421;28;45308;-76
2022/12/24 04:08:21;;;;;;;;;8.25;3.00;;;;;13.44;69.51;101258.22;2393291;28;46019;-76
2022/12/24 04:09:31;;;;;;;;;4.00;3.00;;;;;13.43;69.68;101251.25;2395443;28;45422;-76
2022/12/24 04:10:41;;;;;;;;;9.00;5.00;;;;;13.43;69.79;101253.88;2402794;28;45226;-76
2022/12/24 04:11:52;;;;;;;;;9.00;3.25;;;;;13.43;69.56;101260.94;2403531;28;44612;-76
2022/12/24 04:13:02;;;;;;;;;11.00;3.25;;;;;13.41;69.66;101252.22;2392943;28;47151;-76
2022/12/24 04:14:12;;;;;;;;;6.50;3.25;;;;;13.41;69.83;101255.69;2386407;28;45316;-76
2022/12/24 04:15:23;;;;;;;;;9.00;6.75;;;;;13.40;69.59;101259.28;2385541;28;48503;-76
2022/12/24 04:16:33;;;;;;;;;7.75;5.25;;;;;13.40;69.39;101277.75;2386684;28;45444;-76
2022/12/24 04:17:43;;;;;;;;;9.00;5.25;;;;;13.39;69.59;101263.69;2395994;28;45453;-76
2022/12/24 04:18:54;;;;;;;;;10.25;5.25;;;;;13.39;69.66;101263.69;2402649;28;45448;-76
2022/12/24 04:20:05;;;;;;;;;7.75;4.00;;;;;13.39;69.78;101270.75;2402013;28;45421;-76
2022/12/24 04:21:15;;;;;;;;;7.75;7.50;;;;;13.38;69.57;101271.69;2393376;28;44732;-76
2022/12/24 04:22:26;;;;;;;;;10.50;7.00;;;;;13.37;69.52;101275.22;2395985;28;45407;-76
2022/12/24 04:23:38;;;;;;;;;7.25;5.25;;;;;13.37;69.70;101272.56;2403221;28;45314;-76
2022/12/24 04:24:48;;;;;;;;;9.75;4.75;;;;;13.37;69.86;101278.72;2401884;28;45396;-76
2022/12/24 04:26:00;;;;;;;;;5.75;5.00;;;;;13.37;69.82;101275.22;2403593;28;45225;-76
2022/12/24 04:27:13;;;;;;;;;10.25;4.00;;;;;13.35;69.80;101280.56;2403250;28;46763;-76
2022/12/24 04:28:23;;;;;;;;;4.50;1.75;;;;;13.35;69.93;101277.06;2393124;28;45491;-76
2022/12/24 04:29:34;;;;;;;;;8.25;6.00;;;;;13.36;69.78;101286.69;2384713;28;47012;-76
2022/12/24 04:30:44;;;;;;;;;7.50;4.50;;;;;13.34;69.96;101281.47;2396126;28;45330;-76
2022/12/24 04:31:54;;;;;;;;;7.00;5.25;;;;;13.36;69.87;101278.75;2403102;28;46352;-76
2022/12/24 04:33:05;;;;;;;;;8.75;5.50;;;;;13.37;70.07;101293.69;2403086;28;45329;-76
2022/12/24 04:34:15;;;;;;;;;4.00;4.00;;;;;13.35;69.91;101293.75;2392947;28;47379;-76
2022/12/24 04:35:26;;;;;;;;;7.75;4.00;;;;;13.35;69.68;101288.47;2395329;28;44747;-76
2022/12/24 04:36:37;;;;;;;;;11.25;3.25;;;;;13.37;69.86;101291.06;2403150;28;45385;-76
2022/12/24 04:37:47;;;;;;;;;7.00;4.00;;;;;13.35;69.93;101288.47;2403343;28;45286;-76
2022/12/24 04:38:57;;;;;;;;;4.00;3.75;;;;;13.38;69.97;101298.06;2403364;28;46288;-76
2022/12/24 04:40:08;;;;;;;;;8.00;6.75;;;;;13.37;70.13;101296.34;2391155;28;45259;-76
2022/12/24 04:41:21;;;;;;;;;7.75;5.25;;;;;13.38;70.15;101298.06;2395911;28;45361;-76
2022/12/24 04:42:32;;;;;;;;;7.25;4.00;;;;;13.37;69.69;101293.69;2403235;28;45477;-76
2022/12/24 04:43:42;;;;;;;;;9.00;6.75;;;;;13.38;69.74;101287.50;2392816;28;48041;-76
2022/12/24 04:44:52;;;;;;;;;6.75;3.25;;;;;13.37;69.98;101289.28;2395177;28;44689;-76
2022/12/24 04:46:18;;;;;;;;;9.50;5.00;;;;;13.37;69.86;101288.41;2402765;28;45459;-76
2022/12/24 04:47:28;;;;;;;;;5.75;3.00;;;;;13.38;69.86;101293.63;2393993;28;45243;-76
2022/12/24 04:48:40;;;;;;;;;7.00;7.00;;;;;13.39;69.95;101310.34;2391548;28;47966;-76
2022/12/24 04:49:51;;;;;;;;;8.50;3.25;;;;;13.38;69.85;101311.28;2385558;28;44742;-76
2022/12/24 04:51:03;;;;;;;;;8.50;5.50;;;;;13.39;70.01;101308.56;2395951;28;46188;-76
2022/12/24 04:52:13;;;;;;;;;9.00;4.50;;;;;13.39;69.95;101311.22;2402173;28;45369;-76
2022/12/24 04:53:23;;;;;;;;;7.25;3.25;;;;;13.39;69.74;101307.69;2403013;28;45460;-76
2022/12/24 04:54:34;;;;;;;;;6.00;5.25;;;;;13.38;70.07;101303.34;2403132;28;45341;-76
2022/12/24 04:55:45;;;;;;;;;9.50;4.75;;;;;13.38;69.97;101300.72;2392996;28;48116;-76
2022/12/24 04:56:55;;;;;;;;;7.25;5.50;;;;;13.38;69.89;101303.34;2384706;28;45497;-76
2022/12/24 04:58:05;;;;;;;;;7.50;3.50;;;;;13.38;69.96;101306.00;2394793;28;46588;-76
2022/12/24 04:59:15;;;;;;;;;7.50;4.00;;;;;13.38;69.92;101308.63;2403151;28;45329;-76
2022/12/24 05:00:26;;;;;;;;;7.00;4.75;;;;;13.38;69.88;101304.19;2402302;28;46440;-76
2022/12/24 05:01:36;;;;;;;;;8.75;5.25;;;;;13.37;69.92;101304.25;2402492;28;45266;-76
2022/12/24 05:02:47;;;;;;;;;8.00;5.00;;;;;13.37;70.12;101309.53;2402509;28;45697;-76
2022/12/24 05:03:58;;;;;;;;;8.25;6.50;;;;;13.37;70.03;101312.19;2404802;28;45381;-76
2022/12/24 05:05:08;;;;;;;;;5.25;3.25;;;;;13.38;69.69;101306.00;2403000;28;45767;-76
2022/12/24 05:06:22;;;;;;;;;14.50;7.25;;;;;13.38;69.75;101308.63;2403352;28;45230;-76
2022/12/24 05:07:33;;;;;;;;;8.50;7.00;;;;;13.40;70.02;101312.06;2409668;28;45633;-76
2022/12/24 05:08:43;;;;;;;;;12.75;7.25;;;;;13.39;69.75;101307.69;2409031;28;45432;-76
2022/12/24 05:09:53;;;;;;;;;4.75;3.75;;;;;13.39;69.99;101313.84;2405357;28;46796;-76
2022/12/24 05:11:04;;;;;;;;;4.25;4.00;;;;;13.40;70.08;101309.44;2404453;28;45308;-76
2022/12/24 05:12:15;;;;;;;;;14.00;7.00;;;;;13.39;70.17;101305.94;2399450;28;46959;-76
2022/12/24 05:13:25;;;;;;;;;10.00;5.00;;;;;13.39;69.64;101307.69;2403764;28;45413;-76
2022/12/24 05:14:36;;;;;;;;;9.00;4.75;;;;;13.39;70.14;101305.06;2404513;28;45472;-76
2022/12/24 05:15:46;;;;;;;;;7.50;4.25;;;;;13.39;69.89;101305.94;2402389;28;45270;-76
2022/12/24 05:16:56;;;;;;;;;9.25;6.25;;;;;13.41;69.96;101316.41;2395206;28;47040;-76
2022/12/24 05:18:07;;;;;;;;;7.50;6.00;;;;;13.39;70.06;101302.41;2403091;28;45258;-76
2022/12/24 05:19:17;;;;;;;;;10.00;6.25;;;;;13.40;69.81;101301.50;2401600;28;46870;-76
2022/12/24 05:20:27;;;;;;;;;10.00;7.25;;;;;13.40;70.27;101306.78;2404250;28;45314;-76
2022/12/24 05:21:38;;;;;;;;;5.75;3.00;;;;;13.39;70.04;101303.28;2402098;28;46836;-76
2022/12/24 05:27:15;;;;;;;;;8.00;3.25;;;;;13.38;69.88;101306.00;2406896;28;45727;-76
2022/12/24 05:28:25;;;;;;;;;6.25;3.25;;;;;13.38;69.87;101304.19;2411916;28;45182;-77
2022/12/24 05:29:36;;;;;;;;;9.00;8.25;;;;;13.38;70.20;101303.34;2410369;28;46690;-77
2022/12/24 05:30:46;;;;;;;;;7.00;5.50;;;;;13.39;69.99;101303.28;2401855;28;45276;-77
2022/12/24 05:31:56;;;;;;;;;10.50;4.00;;;;;13.39;70.13;101294.50;2404753;28;45360;-77
2022/12/24 05:33:07;;;;;;;;;7.00;5.25;;;;;13.39;70.26;101291.84;2402299;28;45314;-77
2022/12/24 05:34:17;;;;;;;;;9.75;5.25;;;;;13.38;69.98;101292.78;2403691;28;48021;-77
2022/12/24 05:35:27;;;;;;;;;7.25;4.50;;;;;13.39;70.13;101284.81;2402271;28;45305;-77
2022/12/24 05:36:38;;;;;;;;;10.25;8.25;;;;;13.41;70.26;101299.75;2404464;28;45279;-77
2022/12/24 05:37:49;;;;;;;;;11.00;7.50;;;;;13.40;70.02;101296.25;2411278;28;45194;-77
2022/12/24 05:38:59;;;;;;;;;9.75;5.75;;;;;13.40;70.22;101290.97;2410232;28;45542;-77
2022/12/24 05:40:10;;;;;;;;;15.75;5.25;;;;;13.40;70.19;101293.59;2412346;28;44795;-77
2022/12/24 05:41:20;;;;;;;;;10.50;6.50;;;;;13.40;70.19;101293.59;2412318;28;46089;-77
2022/12/24 05:42:31;;;;;;;;;5.50;5.25;;;;;13.39;70.23;101290.09;2402365;28;45191;-77
2022/12/24 05:43:41;;;;;;;;;8.75;6.50;;;;;13.40;70.40;101290.97;2393810;28;47003;-77
2022/12/24 05:44:51;;;;;;;;;8.25;4.00;;;;;13.41;70.12;101286.53;2405087;28;45392;-77
2022/12/24 05:46:05;;;;;;;;;10.75;6.00;;;;;13.43;70.23;101289.97;2404212;28;46277;-76
2022/12/24 05:47:15;;;;;;;;;2.00;2.00;;;;;13.41;70.43;101287.38;2406082;28;45174;-76
2022/12/24 05:48:26;;;;;;;;;8.25;5.50;;;;;13.43;70.33;101289.97;2411876;28;45496;-76
2022/12/24 05:49:36;;;;;;;;;7.75;6.25;;;;;13.41;70.09;101282.09;2411817;28;45265;-76
2022/12/24 05:50:46;;;;;;;;;11.25;4.25;;;;;13.42;70.42;101277.69;2396077;28;48193;-76